sensor_id;sensor_type;location;lat;lon;timestamp;temperature;humidity
22035;DHT22;11181;51.002;4.356;2023-04-25T00:00:48;12.80;99.90
22035;DHT22;11181;51.002;4.356;2023-04-25T00:03:15;12.80;99.90
22035;DHT22;11181;51.002;4.356;2023-04-25T00:05:44;12.80;99.90
22035;DHT22;11181;51.002;4.356;2023-04-25T00:08:11;12.80;99.90
22035;DHT22;11181;51.002;4.356;2023-04-25T00:10:38;12.90;99.90
22035;DHT22;11181;51.002;4.356;2023-04-25T00:13:05;12.90;99.90
22035;DHT22;11181;51.002;4.356;2023-04-25T00:15:31;12.80;99.90
22035;DHT22;11181;51.002;4.356;2023-04-25T00:18:00;12.80;99.90
22035;DHT22;11181;51.002;4.356;2023-04-25T00:20:26;12.80;99.90
22035;DHT22;11181;51.002;4.356;2023-04-25T00:22:53;12.80;99.90
22035;DHT22;11181;51.002;4.356;2023-04-25T00:25:21;12.90;99.90
22035;DHT22;11181;51.002;4.356;2023-04-25T00:27:48;12.80;99.90
22035;DHT22;11181;51.002;4.356;2023-04-25T00:30:15;12.80;99.90
22035;DHT22;11181;51.002;4.356;2023-04-25T00:32:41;12.80;99.90
22035;DHT22;11181;51.002;4.356;2023-04-25T00:35:10;12.80;99.90
22035;DHT22;11181;51.002;4.356;2023-04-25T00:37:37;12.80;99.90
22035;DHT22;11181;51.002;4.356;2023-04-25T00:40:06;12.80;99.90
22035;DHT22;11181;51.002;4.356;2023-04-25T00:42:34;12.80;99.90
22035;DHT22;11181;51.002;4.356;2023-04-25T00:45:01;12.90;99.90
22035;DHT22;11181;51.002;4.356;2023-04-25T00:47:30;12.90;99.90
22035;DHT22;11181;51.002;4.356;2023-04-25T00:49:58;12.80;99.90
22035;DHT22;11181;51.002;4.356;2023-04-25T00:52:26;12.90;99.90
22035;DHT22;11181;51.002;4.356;2023-04-25T00:54:53;12.90;99.90
22035;DHT22;11181;51.002;4.356;2023-04-25T00:57:20;12.90;99.90
22035;DHT22;11181;51.002;4.356;2023-04-25T00:59:47;12.80;99.90
22035;DHT22;11181;51.002;4.356;2023-04-25T01:02:17;12.80;99.90
22035;DHT22;11181;51.002;4.356;2023-04-25T01:04:45;12.70;99.90
22035;DHT22;11181;51.002;4.356;2023-04-25T01:07:11;12.50;99.90
22035;DHT22;11181;51.002;4.356;2023-04-25T01:09:40;12.50;99.90
22035;DHT22;11181;51.002;4.356;2023-04-25T01:12:07;12.50;99.90
22035;DHT22;11181;51.002;4.356;2023-04-25T01:14:34;12.40;99.90
22035;DHT22;11181;51.002;4.356;2023-04-25T01:17:01;12.30;99.90
22035;DHT22;11181;51.002;4.356;2023-04-25T01:19:29;12.40;99.90
22035;DHT22;11181;51.002;4.356;2023-04-25T01:21:57;12.40;99.90
22035;DHT22;11181;51.002;4.356;2023-04-25T01:24:25;12.10;99.90
22035;DHT22;11181;51.002;4.356;2023-04-25T01:26:52;11.90;99.90
22035;DHT22;11181;51.002;4.356;2023-04-25T01:29:22;11.90;99.90
22035;DHT22;11181;51.002;4.356;2023-04-25T01:31:50;11.90;99.90
22035;DHT22;11181;51.002;4.356;2023-04-25T01:34:17;11.60;99.90
22035;DHT22;11181;51.002;4.356;2023-04-25T01:36:45;11.60;99.90
22035;DHT22;11181;51.002;4.356;2023-04-25T01:39:15;11.50;99.90
22035;DHT22;11181;51.002;4.356;2023-04-25T01:41:41;11.60;99.90
22035;DHT22;11181;51.002;4.356;2023-04-25T01:44:09;11.60;99.90
22035;DHT22;11181;51.002;4.356;2023-04-25T01:46:36;11.60;99.90
22035;DHT22;11181;51.002;4.356;2023-04-25T01:49:03;11.50;99.90
22035;DHT22;11181;51.002;4.356;2023-04-25T01:51:30;11.30;99.90
22035;DHT22;11181;51.002;4.356;2023-04-25T01:53:57;11.30;99.90
22035;DHT22;11181;51.002;4.356;2023-04-25T01:56:30;11.30;99.90
22035;DHT22;11181;51.002;4.356;2023-04-25T01:58:57;11.30;99.90
22035;DHT22;11181;51.002;4.356;2023-04-25T02:01:24;11.20;99.90
22035;DHT22;11181;51.002;4.356;2023-04-25T02:03:52;11.20;99.90
22035;DHT22;11181;51.002;4.356;2023-04-25T02:06:19;11.30;99.90
22035;DHT22;11181;51.002;4.356;2023-04-25T02:08:46;11.20;99.90
22035;DHT22;11181;51.002;4.356;2023-04-25T02:11:13;11.00;99.90
22035;DHT22;11181;51.002;4.356;2023-04-25T02:13:41;10.90;99.90
22035;DHT22;11181;51.002;4.356;2023-04-25T02:16:08;10.90;99.90
22035;DHT22;11181;51.002;4.356;2023-04-25T02:18:35;10.90;99.90
22035;DHT22;11181;51.002;4.356;2023-04-25T02:21:03;11.00;99.90
22035;DHT22;11181;51.002;4.356;2023-04-25T02:23:30;11.20;99.90
22035;DHT22;11181;51.002;4.356;2023-04-25T02:25:57;11.30;99.90
22035;DHT22;11181;51.002;4.356;2023-04-25T02:28:23;11.40;99.90
22035;DHT22;11181;51.002;4.356;2023-04-25T02:30:52;11.60;99.90
22035;DHT22;11181;51.002;4.356;2023-04-25T02:33:19;11.60;99.90
22035;DHT22;11181;51.002;4.356;2023-04-25T02:35:46;11.60;99.90
22035;DHT22;11181;51.002;4.356;2023-04-25T02:38:13;11.60;99.90
22035;DHT22;11181;51.002;4.356;2023-04-25T02:40:40;11.70;99.90
22035;DHT22;11181;51.002;4.356;2023-04-25T02:43:07;11.70;99.90
22035;DHT22;11181;51.002;4.356;2023-04-25T02:45:34;11.70;99.90
22035;DHT22;11181;51.002;4.356;2023-04-25T02:48:03;11.50;99.90
22035;DHT22;11181;51.002;4.356;2023-04-25T02:50:30;11.30;99.90
22035;DHT22;11181;51.002;4.356;2023-04-25T02:52:57;11.00;99.90
22035;DHT22;11181;51.002;4.356;2023-04-25T02:55:24;10.70;99.90
22035;DHT22;11181;51.002;4.356;2023-04-25T02:57:51;10.70;99.90
22035;DHT22;11181;51.002;4.356;2023-04-25T03:00:20;10.60;99.90
22035;DHT22;11181;51.002;4.356;2023-04-25T03:02:47;10.50;99.90
22035;DHT22;11181;51.002;4.356;2023-04-25T03:05:16;10.40;99.90
22035;DHT22;11181;51.002;4.356;2023-04-25T03:07:43;10.10;99.90
22035;DHT22;11181;51.002;4.356;2023-04-25T03:10:11;9.80;99.90
22035;DHT22;11181;51.002;4.356;2023-04-25T03:12:38;9.70;99.90
22035;DHT22;11181;51.002;4.356;2023-04-25T03:15:06;9.60;99.90
22035;DHT22;11181;51.002;4.356;2023-04-25T03:17:33;9.50;99.90
22035;DHT22;11181;51.002;4.356;2023-04-25T03:19:59;9.70;99.90
22035;DHT22;11181;51.002;4.356;2023-04-25T03:22:28;9.80;99.90
22035;DHT22;11181;51.002;4.356;2023-04-25T03:24:55;9.90;99.90
22035;DHT22;11181;51.002;4.356;2023-04-25T03:27:22;9.90;99.90
22035;DHT22;11181;51.002;4.356;2023-04-25T03:29:49;10.00;99.90
22035;DHT22;11181;51.002;4.356;2023-04-25T03:32:16;10.00;99.90
22035;DHT22;11181;51.002;4.356;2023-04-25T03:34:43;10.20;99.90
22035;DHT22;11181;51.002;4.356;2023-04-25T03:37:09;10.20;99.90
22035;DHT22;11181;51.002;4.356;2023-04-25T03:39:38;10.30;99.90
22035;DHT22;11181;51.002;4.356;2023-04-25T03:42:05;10.50;99.90
22035;DHT22;11181;51.002;4.356;2023-04-25T03:44:31;10.70;99.90
22035;DHT22;11181;51.002;4.356;2023-04-25T03:46:58;10.70;99.90
22035;DHT22;11181;51.002;4.356;2023-04-25T03:49:25;10.70;99.90
22035;DHT22;11181;51.002;4.356;2023-04-25T03:51:52;10.80;99.90
22035;DHT22;11181;51.002;4.356;2023-04-25T03:54:19;10.80;99.90
22035;DHT22;11181;51.002;4.356;2023-04-25T03:56:47;11.00;99.90
22035;DHT22;11181;51.002;4.356;2023-04-25T03:59:15;11.00;99.90
22035;DHT22;11181;51.002;4.356;2023-04-25T04:01:42;10.90;99.90
22035;DHT22;11181;51.002;4.356;2023-04-25T04:04:09;10.90;99.90
22035;DHT22;11181;51.002;4.356;2023-04-25T04:06:35;11.00;99.90
22035;DHT22;11181;51.002;4.356;2023-04-25T04:09:03;11.10;99.90
22035;DHT22;11181;51.002;4.356;2023-04-25T04:11:31;11.10;99.90
22035;DHT22;11181;51.002;4.356;2023-04-25T04:14:00;11.10;99.90
22035;DHT22;11181;51.002;4.356;2023-04-25T04:16:27;11.20;99.90
22035;DHT22;11181;51.002;4.356;2023-04-25T04:18:53;11.10;99.90
22035;DHT22;11181;51.002;4.356;2023-04-25T04:21:20;10.50;99.90
22035;DHT22;11181;51.002;4.356;2023-04-25T04:23:47;10.00;99.90
22035;DHT22;11181;51.002;4.356;2023-04-25T04:26:14;9.50;99.90
22035;DHT22;11181;51.002;4.356;2023-04-25T04:28:42;9.30;99.90
22035;DHT22;11181;51.002;4.356;2023-04-25T04:31:10;9.20;99.90
22035;DHT22;11181;51.002;4.356;2023-04-25T04:33:38;9.10;99.90
22035;DHT22;11181;51.002;4.356;2023-04-25T04:36:05;9.00;99.90
22035;DHT22;11181;51.002;4.356;2023-04-25T04:38:33;8.90;99.90
22035;DHT22;11181;51.002;4.356;2023-04-25T04:41:00;8.90;99.90
22035;DHT22;11181;51.002;4.356;2023-04-25T04:43:27;9.00;99.90
22035;DHT22;11181;51.002;4.356;2023-04-25T04:45:55;9.00;99.90
22035;DHT22;11181;51.002;4.356;2023-04-25T04:48:24;9.10;99.90
22035;DHT22;11181;51.002;4.356;2023-04-25T04:50:51;9.10;99.90
22035;DHT22;11181;51.002;4.356;2023-04-25T04:53:18;9.20;99.90
22035;DHT22;11181;51.002;4.356;2023-04-25T04:55:45;9.20;99.90
22035;DHT22;11181;51.002;4.356;2023-04-25T04:58:12;9.50;99.90
22035;DHT22;11181;51.002;4.356;2023-04-25T05:00:38;9.80;99.90
22035;DHT22;11181;51.002;4.356;2023-04-25T05:03:05;10.10;99.90
22035;DHT22;11181;51.002;4.356;2023-04-25T05:05:34;10.30;99.90
22035;DHT22;11181;51.002;4.356;2023-04-25T05:08:00;10.50;99.90
22035;DHT22;11181;51.002;4.356;2023-04-25T05:10:27;10.70;99.90
22035;DHT22;11181;51.002;4.356;2023-04-25T05:12:54;10.80;99.90
22035;DHT22;11181;51.002;4.356;2023-04-25T05:15:21;10.90;99.90
22035;DHT22;11181;51.002;4.356;2023-04-25T05:17:48;11.10;99.90
22035;DHT22;11181;51.002;4.356;2023-04-25T05:20:15;11.20;99.90
22035;DHT22;11181;51.002;4.356;2023-04-25T05:22:45;11.30;99.90
22035;DHT22;11181;51.002;4.356;2023-04-25T05:25:12;11.20;99.90
22035;DHT22;11181;51.002;4.356;2023-04-25T05:27:39;11.20;99.90
22035;DHT22;11181;51.002;4.356;2023-04-25T05:30:06;11.30;99.90
22035;DHT22;11181;51.002;4.356;2023-04-25T05:32:34;11.40;99.90
22035;DHT22;11181;51.002;4.356;2023-04-25T05:35:01;11.40;99.90
22035;DHT22;11181;51.002;4.356;2023-04-25T05:37:28;11.40;99.90
22035;DHT22;11181;51.002;4.356;2023-04-25T05:39:57;11.40;99.90
22035;DHT22;11181;51.002;4.356;2023-04-25T05:42:24;11.40;99.90
22035;DHT22;11181;51.002;4.356;2023-04-25T05:44:51;11.40;99.90
22035;DHT22;11181;51.002;4.356;2023-04-25T05:47:18;11.50;99.90
22035;DHT22;11181;51.002;4.356;2023-04-25T05:49:45;11.50;99.90
22035;DHT22;11181;51.002;4.356;2023-04-25T05:52:12;11.50;99.90
22035;DHT22;11181;51.002;4.356;2023-04-25T05:54:39;11.40;99.90
22035;DHT22;11181;51.002;4.356;2023-04-25T05:57:07;11.40;99.90
22035;DHT22;11181;51.002;4.356;2023-04-25T05:59:34;11.40;99.90
22035;DHT22;11181;51.002;4.356;2023-04-25T06:02:01;11.10;99.90
22035;DHT22;11181;51.002;4.356;2023-04-25T06:04:28;10.80;99.90
22035;DHT22;11181;51.002;4.356;2023-04-25T06:06:55;10.60;99.90
22035;DHT22;11181;51.002;4.356;2023-04-25T06:09:22;10.40;99.90
22035;DHT22;11181;51.002;4.356;2023-04-25T06:11:49;10.50;99.90
22035;DHT22;11181;51.002;4.356;2023-04-25T06:14:17;10.40;99.90
22035;DHT22;11181;51.002;4.356;2023-04-25T06:16:44;10.40;99.90
22035;DHT22;11181;51.002;4.356;2023-04-25T06:19:11;10.20;99.90
22035;DHT22;11181;51.002;4.356;2023-04-25T06:21:38;10.00;99.90
22035;DHT22;11181;51.002;4.356;2023-04-25T06:24:05;9.90;99.90
22035;DHT22;11181;51.002;4.356;2023-04-25T06:26:32;9.80;99.90
22035;DHT22;11181;51.002;4.356;2023-04-25T06:28:59;9.80;99.90
22035;DHT22;11181;51.002;4.356;2023-04-25T06:31:27;9.90;99.90
22035;DHT22;11181;51.002;4.356;2023-04-25T06:33:54;10.00;99.90
22035;DHT22;11181;51.002;4.356;2023-04-25T06:36:21;10.20;99.90
22035;DHT22;11181;51.002;4.356;2023-04-25T06:38:50;10.50;99.90
22035;DHT22;11181;51.002;4.356;2023-04-25T06:41:17;10.60;99.90
22035;DHT22;11181;51.002;4.356;2023-04-25T06:43:45;10.80;99.90
22035;DHT22;11181;51.002;4.356;2023-04-25T06:46:12;11.10;99.90
22035;DHT22;11181;51.002;4.356;2023-04-25T06:48:41;11.30;99.90
22035;DHT22;11181;51.002;4.356;2023-04-25T06:51:08;11.40;99.90
22035;DHT22;11181;51.002;4.356;2023-04-25T06:53:38;11.20;99.90
22035;DHT22;11181;51.002;4.356;2023-04-25T06:56:05;10.80;99.90
22035;DHT22;11181;51.002;4.356;2023-04-25T06:58:32;10.70;99.90
22035;DHT22;11181;51.002;4.356;2023-04-25T07:00:59;10.60;99.90
22035;DHT22;11181;51.002;4.356;2023-04-25T07:03:26;10.70;99.90
22035;DHT22;11181;51.002;4.356;2023-04-25T07:05:54;10.50;99.90
22035;DHT22;11181;51.002;4.356;2023-04-25T07:08:21;10.20;99.90
22035;DHT22;11181;51.002;4.356;2023-04-25T07:10:48;10.10;99.90
22035;DHT22;11181;51.002;4.356;2023-04-25T07:13:15;10.00;99.90
22035;DHT22;11181;51.002;4.356;2023-04-25T07:15:43;10.10;99.90
22035;DHT22;11181;51.002;4.356;2023-04-25T07:18:10;10.20;99.90
22035;DHT22;11181;51.002;4.356;2023-04-25T07:20:37;10.40;99.90
22035;DHT22;11181;51.002;4.356;2023-04-25T07:23:06;10.20;99.90
22035;DHT22;11181;51.002;4.356;2023-04-25T07:25:32;9.90;99.90
22035;DHT22;11181;51.002;4.356;2023-04-25T07:28:00;9.90;99.90
22035;DHT22;11181;51.002;4.356;2023-04-25T07:30:28;10.00;99.90
22035;DHT22;11181;51.002;4.356;2023-04-25T07:32:55;10.20;99.90
22035;DHT22;11181;51.002;4.356;2023-04-25T07:35:22;10.40;99.90
22035;DHT22;11181;51.002;4.356;2023-04-25T07:37:49;10.40;99.90
22035;DHT22;11181;51.002;4.356;2023-04-25T07:40:17;10.60;99.90
22035;DHT22;11181;51.002;4.356;2023-04-25T07:42:44;10.70;99.90
22035;DHT22;11181;51.002;4.356;2023-04-25T07:45:11;10.80;99.90
22035;DHT22;11181;51.002;4.356;2023-04-25T07:47:38;10.90;99.90
22035;DHT22;11181;51.002;4.356;2023-04-25T07:50:05;11.10;99.90
22035;DHT22;11181;51.002;4.356;2023-04-25T07:52:32;11.30;99.90
22035;DHT22;11181;51.002;4.356;2023-04-25T07:54:59;11.30;99.90
22035;DHT22;11181;51.002;4.356;2023-04-25T07:57:28;11.20;99.90
22035;DHT22;11181;51.002;4.356;2023-04-25T07:59:55;11.30;99.90
22035;DHT22;11181;51.002;4.356;2023-04-25T08:02:22;11.50;99.90
22035;DHT22;11181;51.002;4.356;2023-04-25T08:04:51;12.00;99.90
22035;DHT22;11181;51.002;4.356;2023-04-25T08:07:18;12.20;99.90
22035;DHT22;11181;51.002;4.356;2023-04-25T08:09:45;12.30;99.90
22035;DHT22;11181;51.002;4.356;2023-04-25T08:12:12;12.20;99.90
22035;DHT22;11181;51.002;4.356;2023-04-25T08:14:40;12.00;99.90
22035;DHT22;11181;51.002;4.356;2023-04-25T08:17:07;11.60;99.90
22035;DHT22;11181;51.002;4.356;2023-04-25T08:19:34;11.60;99.90
22035;DHT22;11181;51.002;4.356;2023-04-25T08:22:01;11.90;99.90
22035;DHT22;11181;51.002;4.356;2023-04-25T08:24:27;12.30;99.90
22035;DHT22;11181;51.002;4.356;2023-04-25T08:26:54;12.60;99.90
22035;DHT22;11181;51.002;4.356;2023-04-25T08:29:21;13.20;99.90
22035;DHT22;11181;51.002;4.356;2023-04-25T08:31:52;13.30;99.90
22035;DHT22;11181;51.002;4.356;2023-04-25T08:34:19;13.70;99.90
22035;DHT22;11181;51.002;4.356;2023-04-25T08:36:46;14.10;99.90
22035;DHT22;11181;51.002;4.356;2023-04-25T08:39:13;14.30;99.90
22035;DHT22;11181;51.002;4.356;2023-04-25T08:41:40;13.70;99.90
22035;DHT22;11181;51.002;4.356;2023-04-25T08:44:10;13.30;99.90
22035;DHT22;11181;51.002;4.356;2023-04-25T08:46:38;13.10;99.90
22035;DHT22;11181;51.002;4.356;2023-04-25T08:49:08;12.40;99.90
22035;DHT22;11181;51.002;4.356;2023-04-25T08:51:39;12.20;99.90
22035;DHT22;11181;51.002;4.356;2023-04-25T08:54:09;12.10;99.90
22035;DHT22;11181;51.002;4.356;2023-04-25T08:56:38;11.90;99.90
22035;DHT22;11181;51.002;4.356;2023-04-25T08:59:05;11.90;99.90
22035;DHT22;11181;51.002;4.356;2023-04-25T09:01:34;11.80;99.90
22035;DHT22;11181;51.002;4.356;2023-04-25T09:04:01;11.80;99.90
22035;DHT22;11181;51.002;4.356;2023-04-25T09:06:30;11.80;99.90
22035;DHT22;11181;51.002;4.356;2023-04-25T09:09:02;11.80;99.90
22035;DHT22;11181;51.002;4.356;2023-04-25T09:11:30;11.70;99.90
22035;DHT22;11181;51.002;4.356;2023-04-25T09:14:13;11.60;99.90
22035;DHT22;11181;51.002;4.356;2023-04-25T09:17:00;11.70;99.90
22035;DHT22;11181;51.002;4.356;2023-04-25T09:19:29;11.60;99.90
22035;DHT22;11181;51.002;4.356;2023-04-25T09:21:58;11.50;99.90
22035;DHT22;11181;51.002;4.356;2023-04-25T09:24:33;11.60;99.90
22035;DHT22;11181;51.002;4.356;2023-04-25T09:27:03;11.80;99.90
22035;DHT22;11181;51.002;4.356;2023-04-25T09:29:31;12.10;99.90
22035;DHT22;11181;51.002;4.356;2023-04-25T09:32:12;12.20;99.90
22035;DHT22;11181;51.002;4.356;2023-04-25T09:34:40;12.10;99.90
22035;DHT22;11181;51.002;4.356;2023-04-25T09:37:09;12.20;99.90
22035;DHT22;11181;51.002;4.356;2023-04-25T09:39:36;12.50;99.90
22035;DHT22;11181;51.002;4.356;2023-04-25T09:42:04;12.40;99.90
22035;DHT22;11181;51.002;4.356;2023-04-25T09:44:31;12.40;99.90
22035;DHT22;11181;51.002;4.356;2023-04-25T09:46:58;12.70;99.90
22035;DHT22;11181;51.002;4.356;2023-04-25T09:49:27;12.90;99.90
22035;DHT22;11181;51.002;4.356;2023-04-25T09:51:54;13.20;99.90
22035;DHT22;11181;51.002;4.356;2023-04-25T09:54:24;13.50;99.90
22035;DHT22;11181;51.002;4.356;2023-04-25T09:56:52;13.90;99.90
22035;DHT22;11181;51.002;4.356;2023-04-25T09:59:20;14.60;99.90
22035;DHT22;11181;51.002;4.356;2023-04-25T10:01:48;15.00;99.90
22035;DHT22;11181;51.002;4.356;2023-04-25T10:04:19;15.00;99.90
22035;DHT22;11181;51.002;4.356;2023-04-25T10:06:49;14.80;99.90
22035;DHT22;11181;51.002;4.356;2023-04-25T10:09:20;14.30;99.90
22035;DHT22;11181;51.002;4.356;2023-04-25T10:11:48;14.10;99.90
22035;DHT22;11181;51.002;4.356;2023-04-25T10:14:17;14.00;99.90
22035;DHT22;11181;51.002;4.356;2023-04-25T10:16:45;14.10;99.90
22035;DHT22;11181;51.002;4.356;2023-04-25T10:19:12;14.00;99.90
22035;DHT22;11181;51.002;4.356;2023-04-25T10:21:46;14.40;99.90
22035;DHT22;11181;51.002;4.356;2023-04-25T10:24:14;14.50;99.90
22035;DHT22;11181;51.002;4.356;2023-04-25T10:26:41;14.30;99.90
22035;DHT22;11181;51.002;4.356;2023-04-25T10:29:10;13.80;99.90
22035;DHT22;11181;51.002;4.356;2023-04-25T10:31:45;13.30;99.90
22035;DHT22;11181;51.002;4.356;2023-04-25T10:34:12;12.90;99.90
22035;DHT22;11181;51.002;4.356;2023-04-25T10:36:39;12.30;99.90
22035;DHT22;11181;51.002;4.356;2023-04-25T10:39:07;11.90;99.90
22035;DHT22;11181;51.002;4.356;2023-04-25T10:41:46;11.80;99.90
22035;DHT22;11181;51.002;4.356;2023-04-25T10:44:15;11.70;99.90
22035;DHT22;11181;51.002;4.356;2023-04-25T10:46:44;11.60;99.90
22035;DHT22;11181;51.002;4.356;2023-04-25T10:49:28;11.70;99.90
22035;DHT22;11181;51.002;4.356;2023-04-25T10:52:11;11.70;99.90
22035;DHT22;11181;51.002;4.356;2023-04-25T10:54:41;11.90;99.90
22035;DHT22;11181;51.002;4.356;2023-04-25T10:57:26;12.20;99.90
22035;DHT22;11181;51.002;4.356;2023-04-25T10:59:58;12.50;99.90
22035;DHT22;11181;51.002;4.356;2023-04-25T11:02:26;12.50;99.90
22035;DHT22;11181;51.002;4.356;2023-04-25T11:04:54;12.70;99.90
22035;DHT22;11181;51.002;4.356;2023-04-25T11:07:29;12.70;99.90
22035;DHT22;11181;51.002;4.356;2023-04-25T11:10:02;12.70;99.90
22035;DHT22;11181;51.002;4.356;2023-04-25T11:12:30;12.70;99.90
22035;DHT22;11181;51.002;4.356;2023-04-25T11:15:04;12.60;99.90
22035;DHT22;11181;51.002;4.356;2023-04-25T11:17:31;12.50;99.90
22035;DHT22;11181;51.002;4.356;2023-04-25T11:19:58;12.60;99.90
22035;DHT22;11181;51.002;4.356;2023-04-25T11:22:27;12.60;99.90
22035;DHT22;11181;51.002;4.356;2023-04-25T11:24:55;12.70;99.90
22035;DHT22;11181;51.002;4.356;2023-04-25T11:27:22;13.20;99.90
22035;DHT22;11181;51.002;4.356;2023-04-25T11:29:50;13.80;99.90
22035;DHT22;11181;51.002;4.356;2023-04-25T11:32:18;14.00;99.90
22035;DHT22;11181;51.002;4.356;2023-04-25T11:34:46;14.40;99.90
22035;DHT22;11181;51.002;4.356;2023-04-25T11:37:14;14.90;99.90
22035;DHT22;11181;51.002;4.356;2023-04-25T11:39:44;15.20;99.90
22035;DHT22;11181;51.002;4.356;2023-04-25T11:42:12;14.60;99.90
22035;DHT22;11181;51.002;4.356;2023-04-25T11:44:39;14.10;99.90
22035;DHT22;11181;51.002;4.356;2023-04-25T11:47:07;13.70;99.90
22035;DHT22;11181;51.002;4.356;2023-04-25T11:49:35;13.60;99.90
22035;DHT22;11181;51.002;4.356;2023-04-25T11:52:02;13.70;99.90
22035;DHT22;11181;51.002;4.356;2023-04-25T11:54:29;13.70;99.90
22035;DHT22;11181;51.002;4.356;2023-04-25T11:56:56;13.80;99.90
22035;DHT22;11181;51.002;4.356;2023-04-25T11:59:24;13.90;99.90
22035;DHT22;11181;51.002;4.356;2023-04-25T12:01:52;14.00;99.90
22035;DHT22;11181;51.002;4.356;2023-04-25T12:04:21;14.20;99.90
22035;DHT22;11181;51.002;4.356;2023-04-25T12:06:50;14.00;99.90
22035;DHT22;11181;51.002;4.356;2023-04-25T12:09:18;14.10;99.90
22035;DHT22;11181;51.002;4.356;2023-04-25T12:11:47;14.40;99.90
22035;DHT22;11181;51.002;4.356;2023-04-25T12:14:21;14.60;99.90
22035;DHT22;11181;51.002;4.356;2023-04-25T12:16:50;14.70;99.90
22035;DHT22;11181;51.002;4.356;2023-04-25T12:19:19;14.40;99.90
22035;DHT22;11181;51.002;4.356;2023-04-25T12:21:47;14.10;99.90
22035;DHT22;11181;51.002;4.356;2023-04-25T12:24:17;14.40;99.90
22035;DHT22;11181;51.002;4.356;2023-04-25T12:26:51;14.20;99.90
22035;DHT22;11181;51.002;4.356;2023-04-25T12:29:20;13.50;99.90
22035;DHT22;11181;51.002;4.356;2023-04-25T12:31:47;13.10;99.90
22035;DHT22;11181;51.002;4.356;2023-04-25T12:34:14;12.80;99.90
22035;DHT22;11181;51.002;4.356;2023-04-25T12:36:41;12.80;99.90
22035;DHT22;11181;51.002;4.356;2023-04-25T12:39:08;13.50;99.90
22035;DHT22;11181;51.002;4.356;2023-04-25T12:41:37;14.30;99.90
22035;DHT22;11181;51.002;4.356;2023-04-25T12:44:03;14.70;99.90
22035;DHT22;11181;51.002;4.356;2023-04-25T12:46:30;14.30;99.90
22035;DHT22;11181;51.002;4.356;2023-04-25T12:48:57;14.00;99.90
22035;DHT22;11181;51.002;4.356;2023-04-25T12:51:24;13.70;99.90
22035;DHT22;11181;51.002;4.356;2023-04-25T12:53:53;13.90;99.90
22035;DHT22;11181;51.002;4.356;2023-04-25T12:56:20;14.10;99.90
22035;DHT22;11181;51.002;4.356;2023-04-25T12:58:48;14.40;99.90
22035;DHT22;11181;51.002;4.356;2023-04-25T13:01:15;14.70;99.90
22035;DHT22;11181;51.002;4.356;2023-04-25T13:03:42;14.90;99.90
22035;DHT22;11181;51.002;4.356;2023-04-25T13:06:09;15.00;99.90
22035;DHT22;11181;51.002;4.356;2023-04-25T13:08:36;15.10;99.90
22035;DHT22;11181;51.002;4.356;2023-04-25T13:11:04;15.00;99.90
22035;DHT22;11181;51.002;4.356;2023-04-25T13:13:31;15.40;99.90
22035;DHT22;11181;51.002;4.356;2023-04-25T13:16:01;15.80;99.90
22035;DHT22;11181;51.002;4.356;2023-04-25T13:18:28;15.20;99.90
22035;DHT22;11181;51.002;4.356;2023-04-25T13:20:55;14.70;99.90
22035;DHT22;11181;51.002;4.356;2023-04-25T13:23:24;14.40;99.90
22035;DHT22;11181;51.002;4.356;2023-04-25T13:25:51;14.00;99.90
22035;DHT22;11181;51.002;4.356;2023-04-25T13:28:18;13.80;99.90
22035;DHT22;11181;51.002;4.356;2023-04-25T13:30:45;13.90;99.90
22035;DHT22;11181;51.002;4.356;2023-04-25T13:33:15;13.90;99.90
22035;DHT22;11181;51.002;4.356;2023-04-25T13:35:42;14.00;99.90
22035;DHT22;11181;51.002;4.356;2023-04-25T13:38:12;14.30;99.90
22035;DHT22;11181;51.002;4.356;2023-04-25T13:40:39;14.10;99.90
22035;DHT22;11181;51.002;4.356;2023-04-25T13:43:06;13.70;99.90
22035;DHT22;11181;51.002;4.356;2023-04-25T13:45:33;13.90;99.90
22035;DHT22;11181;51.002;4.356;2023-04-25T13:48:00;14.50;99.90
22035;DHT22;11181;51.002;4.356;2023-04-25T13:50:28;15.10;99.90
22035;DHT22;11181;51.002;4.356;2023-04-25T13:52:55;15.50;99.90
22035;DHT22;11181;51.002;4.356;2023-04-25T13:55:22;15.90;99.90
22035;DHT22;11181;51.002;4.356;2023-04-25T13:57:49;15.90;99.90
22035;DHT22;11181;51.002;4.356;2023-04-25T14:00:17;16.10;99.90
22035;DHT22;11181;51.002;4.356;2023-04-25T14:02:44;15.90;99.90
22035;DHT22;11181;51.002;4.356;2023-04-25T14:05:11;15.80;99.90
22035;DHT22;11181;51.002;4.356;2023-04-25T14:07:39;15.30;99.90
22035;DHT22;11181;51.002;4.356;2023-04-25T14:10:07;15.30;99.90
22035;DHT22;11181;51.002;4.356;2023-04-25T14:12:34;15.20;99.90
22035;DHT22;11181;51.002;4.356;2023-04-25T14:15:01;14.90;99.90
22035;DHT22;11181;51.002;4.356;2023-04-25T14:17:28;15.00;99.90
22035;DHT22;11181;51.002;4.356;2023-04-25T14:19:55;15.20;99.90
22035;DHT22;11181;51.002;4.356;2023-04-25T14:22:22;15.60;99.90
22035;DHT22;11181;51.002;4.356;2023-04-25T14:24:50;15.50;99.90
22035;DHT22;11181;51.002;4.356;2023-04-25T14:27:17;15.00;99.90
22035;DHT22;11181;51.002;4.356;2023-04-25T14:29:45;14.80;99.90
22035;DHT22;11181;51.002;4.356;2023-04-25T14:32:11;14.80;99.90
22035;DHT22;11181;51.002;4.356;2023-04-25T14:34:38;15.10;99.90
22035;DHT22;11181;51.002;4.356;2023-04-25T14:37:05;15.30;99.90
22035;DHT22;11181;51.002;4.356;2023-04-25T14:39:32;15.20;99.90
22035;DHT22;11181;51.002;4.356;2023-04-25T14:42:00;15.60;99.90
22035;DHT22;11181;51.002;4.356;2023-04-25T14:44:27;16.10;99.90
22035;DHT22;11181;51.002;4.356;2023-04-25T14:46:54;16.20;99.90
22035;DHT22;11181;51.002;4.356;2023-04-25T14:49:21;15.70;99.90
22035;DHT22;11181;51.002;4.356;2023-04-25T14:51:48;15.90;99.90
22035;DHT22;11181;51.002;4.356;2023-04-25T14:54:16;15.70;99.90
22035;DHT22;11181;51.002;4.356;2023-04-25T14:56:43;16.10;99.90
22035;DHT22;11181;51.002;4.356;2023-04-25T14:59:12;15.90;99.90
22035;DHT22;11181;51.002;4.356;2023-04-25T15:01:38;15.60;99.90
22035;DHT22;11181;51.002;4.356;2023-04-25T15:04:05;15.60;99.90
22035;DHT22;11181;51.002;4.356;2023-04-25T15:06:33;15.50;99.90
22035;DHT22;11181;51.002;4.356;2023-04-25T15:09:00;15.70;99.90
22035;DHT22;11181;51.002;4.356;2023-04-25T15:11:27;15.90;99.90
22035;DHT22;11181;51.002;4.356;2023-04-25T15:13:54;15.90;99.90
22035;DHT22;11181;51.002;4.356;2023-04-25T15:16:22;16.00;99.90
22035;DHT22;11181;51.002;4.356;2023-04-25T15:18:49;16.30;99.90
22035;DHT22;11181;51.002;4.356;2023-04-25T15:21:16;16.50;99.90
22035;DHT22;11181;51.002;4.356;2023-04-25T15:23:43;16.40;99.90
22035;DHT22;11181;51.002;4.356;2023-04-25T15:26:09;16.30;99.90
22035;DHT22;11181;51.002;4.356;2023-04-25T15:28:37;16.00;99.90
22035;DHT22;11181;51.002;4.356;2023-04-25T15:31:04;15.60;99.90
22035;DHT22;11181;51.002;4.356;2023-04-25T15:33:33;15.40;99.90
22035;DHT22;11181;51.002;4.356;2023-04-25T15:36:00;15.30;99.90